Terminal Aerodrome Forecast
Issued by NWS Shreveport, LA

Home | Current Version | Previous Version | Text Only | Print | Product List | Glossary On
Versions: 1 2 3 4 5 6 7 8 9 10 11 12 13 14 15 16 17 18
000
FTUS44 KSHV 202342
TAFGGG
TAF
KGGG 202342Z 2100/2124 18006KT P6SM SCT150 BKN250
      TEMPO 2110/2114 5SM BR BKN005
     FM211400 20006KT 5SM BR VCSH OVC005
     FM211800 21007KT P6SM VCTS OVC015CB
     FM212100 22010KT P6SM VCTS OVC025CB=

USA.gov is the U.S. government's official web portal to all federal, state and local government web resources and services.